createdAt,value
2022-10-23T00:00:28.360Z,19.38
2022-10-23T00:02:58.079Z,27.10
2022-10-23T00:05:27.588Z,21.38
2022-10-23T00:07:57.498Z,20.35
2022-10-23T00:10:28.900Z,23.73
2022-10-23T00:12:57.822Z,19.52
2022-10-23T00:15:27.540Z,16.08
2022-10-23T00:17:56.557Z,20.08
2022-10-23T00:20:25.554Z,22.33
2022-10-23T00:22:54.820Z,20.63
2022-10-23T00:25:23.914Z,22.88
2022-10-23T00:27:54.292Z,22.80
2022-10-23T00:30:23.347Z,18.90
2022-10-23T00:32:52.802Z,18.60
2022-10-23T00:35:22.548Z,19.65
2022-10-23T00:37:51.813Z,20.23
2022-10-23T00:40:20.961Z,24.65
2022-10-23T00:42:50.200Z,19.80
2022-10-23T00:45:22.878Z,18.02
2022-10-23T00:47:52.201Z,23.33
2022-10-23T00:50:23.974Z,28.23
2022-10-23T00:52:54.995Z,20.48
2022-10-23T00:55:25.104Z,22.33
2022-10-23T00:57:54.378Z,17.73
2022-10-23T01:00:25.913Z,18.67
2022-10-23T01:02:55.219Z,16.08
2022-10-23T01:05:26.375Z,18.67
2022-10-23T01:07:58.134Z,22.00
2022-10-23T01:10:33.896Z,26.10
2022-10-23T01:13:07.367Z,17.83
2022-10-23T01:15:41.442Z,16.67
2022-10-23T01:18:14.816Z,14.77
2022-10-23T01:20:49.849Z,18.08
2022-10-23T01:23:27.959Z,20.70
2022-10-23T01:26:04.273Z,18.35
2022-10-23T01:28:36.501Z,18.83
2022-10-23T01:31:10.590Z,18.73
2022-10-23T01:33:42.544Z,17.83
2022-10-23T01:36:14.175Z,21.27
2022-10-23T01:38:48.093Z,25.33
2022-10-23T01:41:22.948Z,18.90
2022-10-23T01:43:56.402Z,18.58
2022-10-23T01:46:27.935Z,17.00
2022-10-23T01:48:58.585Z,17.25
2022-10-23T01:51:29.011Z,17.38
2022-10-23T01:54:06.181Z,23.20
2022-10-23T01:56:39.931Z,22.45
2022-10-23T01:59:12.740Z,15.37
2022-10-23T02:01:43.922Z,18.58
2022-10-23T02:04:16.873Z,23.80
2022-10-23T02:06:46.334Z,21.60
2022-10-23T02:09:16.149Z,20.42
2022-10-23T02:11:50.140Z,27.67
2022-10-23T02:14:25.617Z,23.42
2022-10-23T02:16:56.421Z,21.95
2022-10-23T02:19:28.533Z,22.55
2022-10-23T02:22:09.783Z,15.38
2022-10-23T02:24:41.226Z,16.30
2022-10-23T02:27:13.646Z,20.25
2022-10-23T02:29:46.134Z,20.92
2022-10-23T02:32:16.461Z,17.83
2022-10-23T02:34:45.786Z,14.68
2022-10-23T02:37:16.152Z,18.00
2022-10-23T02:39:45.451Z,17.00
2022-10-23T02:42:20.496Z,33.47
2022-10-23T02:44:57.397Z,18.50
2022-10-23T02:47:34.004Z,15.30
2022-10-23T02:50:06.935Z,15.43
2022-10-23T02:52:41.535Z,16.27
2022-10-23T02:55:17.701Z,16.63
2022-10-23T02:57:54.571Z,15.20
2022-10-23T03:00:25.918Z,14.98
2022-10-23T03:02:57.937Z,16.67
2022-10-23T03:05:31.246Z,21.58
2022-10-23T03:08:00.387Z,15.85
2022-10-23T03:10:29.492Z,15.77
2022-10-23T03:12:58.482Z,20.23
2022-10-23T03:15:29.832Z,16.55
2022-10-23T03:17:58.879Z,17.67
2022-10-23T03:20:27.807Z,21.05
2022-10-23T03:22:56.723Z,19.25
2022-10-23T03:25:25.630Z,21.60
2022-10-23T03:27:54.911Z,25.23
2022-10-23T03:30:24.148Z,18.77
2022-10-23T03:32:57.956Z,17.10
2022-10-23T03:35:26.958Z,21.65
2022-10-23T03:37:55.886Z,18.27
2022-10-23T03:40:27.361Z,20.85
2022-10-23T03:42:56.715Z,16.77
2022-10-23T03:45:25.625Z,16.40
2022-10-23T03:47:55.026Z,15.95
2022-10-23T03:50:25.569Z,15.13
2022-10-23T03:52:56.184Z,16.25
2022-10-23T03:55:25.685Z,16.23
2022-10-23T03:57:55.230Z,16.17
2022-10-23T04:00:25.137Z,16.73
2022-10-23T04:02:54.251Z,16.15
2022-10-23T04:05:23.211Z,12.43
2022-10-23T04:07:59.981Z,13.70
2022-10-23T04:10:29.062Z,17.42
2022-10-23T04:12:57.998Z,18.15
2022-10-23T04:15:27.081Z,20.77
2022-10-23T04:17:57.096Z,19.58
2022-10-23T04:20:26.204Z,16.58
2022-10-23T04:22:55.303Z,24.33
2022-10-23T04:25:25.812Z,16.40
2022-10-23T04:27:57.944Z,20.20
2022-10-23T04:30:31.195Z,17.33
2022-10-23T04:33:00.310Z,17.00
2022-10-23T04:35:29.601Z,18.58
2022-10-23T04:37:58.777Z,22.42
2022-10-23T04:40:29.183Z,14.07
2022-10-23T04:42:58.278Z,11.95
2022-10-23T04:45:28.289Z,15.85
2022-10-23T04:47:57.640Z,13.90
2022-10-23T04:50:28.900Z,12.50
2022-10-23T04:53:16.643Z,14.10
2022-10-23T04:56:25.876Z,15.57
2022-10-23T04:59:07.012Z,12.00
2022-10-23T05:01:38.083Z,15.63
2022-10-23T05:04:09.886Z,14.15
2022-10-23T05:07:01.854Z,16.73
2022-10-23T05:09:51.883Z,17.20
2022-10-23T05:12:40.861Z,16.00
2022-10-23T05:15:10.647Z,17.50
2022-10-23T05:17:42.116Z,14.45
2022-10-23T05:20:13.712Z,14.40
2022-10-23T05:22:48.948Z,16.42
2022-10-23T05:25:20.047Z,16.02
2022-10-23T05:27:55.019Z,16.20
2022-10-23T05:30:24.779Z,13.27
2022-10-23T05:32:53.899Z,13.50
2022-10-23T05:35:25.991Z,12.63
2022-10-23T05:37:56.584Z,16.92
2022-10-23T05:40:28.820Z,19.77
2022-10-23T05:43:10.844Z,15.55
2022-10-23T05:46:02.043Z,19.35
2022-10-23T05:48:57.543Z,12.50
2022-10-23T05:51:47.177Z,10.73
2022-10-23T05:54:34.930Z,14.00
2022-10-23T05:57:24.422Z,12.07
2022-10-23T05:59:56.308Z,13.88
2022-10-23T06:02:28.219Z,14.52
2022-10-23T06:05:09.708Z,18.23
2022-10-23T06:08:10.831Z,11.18
2022-10-23T06:10:40.655Z,9.88
2022-10-23T06:13:12.110Z,17.40
2022-10-23T06:15:42.580Z,14.50
2022-10-23T06:18:17.369Z,10.90
2022-10-23T06:21:05.740Z,14.10
2022-10-23T06:23:35.788Z,13.40
2022-10-23T06:26:08.412Z,12.93
2022-10-23T06:28:49.994Z,18.05
2022-10-23T06:31:26.821Z,18.95
2022-10-23T06:33:58.219Z,12.75
2022-10-23T06:36:28.367Z,16.58
2022-10-23T06:39:06.041Z,14.48
2022-10-23T06:41:58.727Z,16.60
2022-10-23T06:44:57.100Z,23.15
2022-10-23T06:47:46.693Z,15.32
2022-10-23T06:50:48.109Z,16.45
2022-10-23T06:53:23.903Z,17.35
2022-10-23T06:58:37.694Z,17.25
2022-10-23T07:01:16.587Z,17.70
2022-10-23T07:06:18.948Z,13.88
2022-10-23T07:08:49.807Z,18.95
2022-10-23T07:11:40.014Z,20.58
2022-10-23T07:14:09.479Z,16.95
2022-10-23T07:16:39.208Z,14.15
2022-10-23T07:19:08.319Z,17.00
2022-10-23T07:21:44.565Z,19.83
2022-10-23T07:24:31.868Z,14.82
2022-10-23T07:27:03.257Z,21.58
2022-10-23T07:29:33.515Z,16.08
2022-10-23T07:32:02.844Z,20.48
2022-10-23T07:34:38.027Z,15.00
2022-10-23T07:37:24.598Z,15.00
2022-10-23T07:39:54.238Z,16.65
2022-10-23T07:42:23.535Z,15.60
2022-10-23T07:44:52.850Z,18.35
2022-10-23T07:47:22.054Z,16.27
2022-10-23T07:49:53.358Z,18.25
2022-10-23T07:52:24.553Z,17.15
2022-10-23T07:55:11.568Z,21.50
2022-10-23T07:57:47.862Z,18.65
2022-10-23T08:00:27.563Z,24.50
2022-10-23T08:03:06.326Z,17.88
2022-10-23T08:05:35.737Z,18.83
2022-10-23T08:08:08.073Z,18.67
2022-10-23T08:10:41.605Z,17.30
2022-10-23T08:13:14.581Z,19.48
2022-10-23T08:15:54.473Z,21.55
2022-10-23T08:18:58.908Z,22.27
2022-10-23T08:21:28.979Z,21.02
2022-10-23T08:24:01.594Z,20.70
2022-10-23T08:26:33.865Z,20.95
2022-10-23T08:29:03.409Z,19.73
2022-10-23T08:31:32.910Z,18.73
2022-10-23T08:34:25.044Z,18.90
2022-10-23T08:36:56.708Z,16.95
2022-10-23T08:39:30.544Z,16.98
2022-10-23T08:42:27.015Z,19.30
2022-10-23T08:45:03.966Z,14.85
2022-10-23T08:47:38.685Z,15.82
2022-10-23T08:50:36.864Z,16.35
2022-10-23T08:53:10.294Z,18.70
2022-10-23T08:55:44.152Z,14.05
2022-10-23T08:58:21.806Z,22.25
2022-10-23T09:00:53.032Z,18.98
2022-10-23T09:03:23.319Z,18.80
2022-10-23T09:06:01.799Z,16.13
2022-10-23T09:08:36.123Z,29.35
2022-10-23T09:11:08.766Z,21.00
2022-10-23T09:13:46.164Z,21.40
2022-10-23T09:16:18.576Z,13.05
2022-10-23T09:18:48.577Z,18.75
2022-10-23T09:21:17.925Z,16.80
2022-10-23T09:23:47.189Z,14.00
2022-10-23T09:26:21.025Z,18.10
2022-10-23T09:28:52.390Z,18.08
2022-10-23T09:31:21.375Z,21.52
2022-10-23T09:33:59.698Z,19.40
2022-10-23T09:36:33.583Z,15.23
2022-10-23T09:39:02.878Z,14.48
2022-10-23T09:41:36.674Z,19.88
2022-10-23T09:44:17.604Z,14.25
2022-10-23T09:46:48.410Z,19.25
2022-10-23T09:49:19.180Z,13.50
2022-10-23T09:51:53.275Z,15.73
2022-10-23T09:54:24.298Z,14.70
2022-10-23T09:56:56.121Z,18.20
2022-10-23T09:59:27.355Z,16.73
2022-10-23T10:02:01.213Z,16.85
2022-10-23T10:04:53.455Z,15.35
2022-10-23T10:07:26.033Z,16.08
2022-10-23T10:09:55.715Z,13.70
2022-10-23T10:12:34.817Z,14.70
2022-10-23T10:15:07.267Z,15.27
2022-10-23T10:17:39.890Z,10.82
2022-10-23T10:20:17.008Z,17.13
2022-10-23T10:22:52.025Z,14.27
2022-10-23T10:25:25.201Z,12.27
2022-10-23T10:28:00.453Z,14.57
2022-10-23T10:30:33.906Z,19.00
2022-10-23T10:33:06.640Z,15.80
2022-10-23T10:35:39.956Z,15.93
2022-10-23T10:38:23.964Z,12.10
2022-10-23T10:40:57.648Z,14.50
2022-10-23T10:43:35.355Z,15.68
2022-10-23T10:46:12.199Z,16.20
2022-10-23T10:48:44.055Z,13.52
2022-10-23T10:51:35.087Z,10.68
2022-10-23T10:54:12.245Z,15.45
2022-10-23T10:56:43.546Z,12.98
2022-10-23T10:59:17.999Z,16.03
2022-10-23T11:01:51.123Z,13.75
2022-10-23T11:04:23.962Z,16.02
2022-10-23T11:06:53.941Z,13.27
2022-10-23T11:09:24.264Z,12.05
2022-10-23T11:11:53.396Z,15.98
2022-10-23T11:14:25.438Z,13.00
2022-10-23T11:16:56.048Z,14.50
2022-10-23T11:19:27.187Z,11.88
2022-10-23T11:21:59.115Z,15.35
2022-10-23T11:24:51.509Z,18.48
2022-10-23T11:27:44.468Z,16.23
2022-10-23T11:30:26.919Z,15.20
2022-10-23T11:33:15.019Z,13.82
2022-10-23T11:35:53.378Z,14.30
2022-10-23T11:38:27.870Z,15.75
2022-10-23T11:41:00.895Z,12.20
2022-10-23T11:43:31.503Z,19.58
2022-10-23T11:46:13.344Z,20.17
2022-10-23T11:48:43.815Z,17.25
2022-10-23T11:51:32.833Z,15.90
2022-10-23T11:54:25.753Z,19.40
2022-10-23T11:56:57.353Z,14.43
2022-10-23T11:59:30.494Z,18.05
2022-10-23T12:02:02.624Z,21.27
2022-10-23T12:04:40.584Z,16.30
2022-10-23T12:07:18.493Z,15.48
2022-10-23T12:09:53.695Z,16.00
2022-10-23T12:12:30.833Z,21.17
2022-10-23T12:15:09.709Z,24.23
2022-10-23T12:17:41.429Z,17.02
2022-10-23T12:20:25.563Z,12.98
2022-10-23T12:23:03.878Z,17.50
2022-10-23T12:25:36.696Z,19.25
2022-10-23T12:28:07.560Z,17.83
2022-10-23T12:30:42.644Z,15.80
2022-10-23T12:33:21.501Z,17.10
2022-10-23T12:36:09.668Z,14.60
2022-10-23T12:38:44.209Z,16.40
2022-10-23T12:41:15.055Z,18.48
2022-10-23T12:43:52.218Z,18.58
2022-10-23T12:46:29.809Z,16.17
2022-10-23T12:49:00.793Z,15.45
2022-10-23T12:51:30.622Z,15.43
2022-10-23T12:53:59.736Z,20.73
2022-10-23T12:56:37.129Z,18.25
2022-10-23T12:59:07.282Z,21.63
2022-10-23T13:01:39.428Z,16.70
2022-10-23T13:06:54.117Z,18.70
2022-10-23T13:09:35.241Z,16.10
2022-10-23T13:12:18.640Z,16.45
2022-10-23T13:14:57.811Z,24.90
2022-10-23T13:17:35.743Z,16.73
2022-10-23T13:20:26.495Z,18.30
2022-10-23T13:23:00.956Z,14.50
2022-10-23T13:25:33.383Z,15.55
2022-10-23T13:28:23.518Z,20.63
2022-10-23T13:31:12.811Z,15.25
2022-10-23T13:34:20.313Z,17.63
2022-10-23T13:36:55.535Z,17.60
2022-10-23T13:39:26.901Z,15.57
2022-10-23T13:41:56.245Z,17.23
2022-10-23T13:44:26.487Z,18.50
2022-10-23T13:46:57.107Z,13.00
2022-10-23T13:49:28.470Z,16.67
2022-10-23T13:51:58.208Z,21.30
2022-10-23T13:54:32.777Z,14.52
2022-10-23T13:57:02.068Z,22.92
2022-10-23T13:59:31.326Z,19.40
2022-10-23T14:02:00.964Z,23.23
2022-10-23T14:04:30.546Z,22.48
2022-10-23T14:07:05.681Z,15.98
2022-10-23T14:09:39.904Z,18.08
2022-10-23T14:14:39.349Z,17.92
2022-10-23T14:17:08.607Z,22.48
2022-10-23T14:22:12.385Z,18.30
2022-10-23T14:24:43.429Z,19.33
2022-10-23T14:27:15.746Z,19.73
2022-10-23T14:29:50.414Z,21.55
2022-10-23T14:32:19.704Z,15.63
2022-10-23T14:34:52.869Z,20.30
2022-10-23T14:37:23.033Z,15.73
2022-10-23T14:39:53.668Z,20.42
2022-10-23T14:42:22.912Z,18.17
2022-10-23T14:44:54.212Z,17.80
2022-10-23T14:47:30.217Z,17.45
2022-10-23T14:49:59.789Z,25.10
2022-10-23T14:52:29.433Z,22.48
2022-10-23T14:55:01.761Z,21.83
2022-10-23T14:57:30.939Z,18.35
2022-10-23T15:00:00.218Z,22.50
2022-10-23T15:02:29.515Z,22.92
2022-10-23T15:04:58.592Z,18.77
2022-10-23T15:07:28.070Z,69.93
2022-10-23T15:09:57.505Z,19.40
2022-10-23T15:12:28.408Z,22.40
2022-10-23T15:14:58.145Z,23.92
2022-10-23T15:17:29.085Z,21.73
2022-10-23T15:19:58.645Z,20.40
2022-10-23T15:22:27.975Z,22.17
2022-10-23T15:24:57.518Z,18.52
2022-10-23T15:27:28.899Z,15.82
2022-10-23T15:30:02.720Z,22.63
2022-10-23T15:32:35.245Z,19.10
2022-10-23T15:35:04.728Z,22.85
2022-10-23T15:37:34.325Z,16.77
2022-10-23T15:40:03.810Z,17.90
2022-10-23T15:42:34.628Z,23.65
2022-10-23T15:45:05.882Z,21.95
2022-10-23T15:47:35.840Z,20.73
2022-10-23T15:50:05.916Z,26.42
2022-10-23T15:52:35.791Z,28.55
2022-10-23T15:55:05.410Z,20.17
2022-10-23T15:57:38.918Z,22.10
2022-10-23T16:00:09.336Z,25.73
2022-10-23T16:02:39.260Z,26.10
2022-10-23T16:05:09.060Z,22.90
2022-10-23T16:07:39.109Z,26.15
2022-10-23T16:10:08.706Z,22.77
2022-10-23T16:12:39.816Z,18.60
2022-10-23T16:15:17.564Z,7.47
2022-10-23T16:17:47.254Z,0.80
2022-10-23T16:20:21.161Z,3.47
2022-10-23T16:22:50.917Z,2.30
2022-10-23T16:25:22.650Z,2.88
2022-10-23T16:27:55.096Z,3.85
2022-10-23T16:30:27.262Z,1.92
2022-10-23T16:35:31.299Z,3.72
2022-10-23T16:38:11.338Z,2.88
2022-10-23T16:40:40.771Z,1.40
2022-10-23T16:43:30.477Z,1.27
2022-10-23T16:46:26.291Z,2.45
2022-10-23T16:48:59.860Z,2.40
2022-10-23T16:51:30.533Z,8.73
2022-10-23T16:54:03.540Z,5.72
2022-10-23T16:56:33.664Z,9.60
2022-10-23T16:59:08.967Z,6.35
2022-10-23T17:01:38.469Z,14.40
2022-10-23T17:04:11.130Z,10.02
2022-10-23T17:06:41.376Z,5.35
2022-10-23T17:09:11.221Z,3.42
2022-10-23T17:11:41.414Z,2.38
2022-10-23T17:14:14.061Z,2.88
2022-10-23T17:16:44.604Z,4.90
2022-10-23T17:19:20.933Z,4.20
2022-10-23T17:22:05.616Z,5.70
2022-10-23T17:24:35.135Z,11.70
2022-10-23T17:27:04.958Z,7.10
2022-10-23T17:29:35.493Z,4.63
2022-10-23T17:32:05.180Z,4.13
2022-10-23T17:34:34.493Z,5.13
2022-10-23T17:37:03.671Z,7.15
2022-10-23T17:39:32.696Z,6.68
2022-10-23T17:42:06.749Z,37.88
2022-10-23T17:44:37.707Z,35.47
2022-10-23T17:47:07.892Z,32.70
2022-10-23T17:49:40.632Z,22.40
2022-10-23T17:52:15.183Z,14.27
2022-10-23T17:54:48.965Z,15.32
2022-10-23T17:57:18.870Z,12.18
2022-10-23T17:59:50.163Z,8.43
2022-10-23T18:02:22.703Z,9.05
2022-10-23T18:04:52.752Z,10.85
2022-10-23T18:07:24.275Z,9.60
2022-10-23T18:09:53.563Z,11.20
2022-10-23T18:12:25.900Z,10.70
2022-10-23T18:15:05.452Z,11.45
2022-10-23T18:17:35.179Z,9.93
2022-10-23T18:20:07.293Z,9.63
2022-10-23T18:22:38.308Z,17.05
2022-10-23T18:25:09.203Z,11.40
2022-10-23T18:27:39.803Z,10.52
2022-10-23T18:30:13.828Z,10.00
2022-10-23T18:32:44.888Z,12.07
2022-10-23T18:35:16.919Z,13.88
2022-10-23T18:37:46.044Z,14.65
2022-10-23T18:40:19.939Z,13.38
2022-10-23T18:42:50.213Z,13.07
2022-10-23T18:45:20.934Z,10.20
2022-10-23T18:47:50.108Z,9.52
2022-10-23T18:50:27.180Z,11.45
2022-10-23T18:53:09.016Z,11.10
2022-10-23T18:55:56.999Z,11.13
2022-10-23T18:58:39.169Z,11.90
2022-10-23T19:01:38.810Z,12.80
2022-10-23T19:04:18.941Z,6.65
2022-10-23T19:07:35.951Z,12.48
2022-10-23T19:10:41.911Z,7.60
2022-10-23T19:13:38.126Z,17.33
2022-10-23T19:16:43.708Z,19.35
2022-10-23T19:23:39.432Z,14.50
2022-10-23T19:26:36.955Z,16.98
2022-10-23T19:29:24.241Z,9.35
2022-10-23T19:32:03.787Z,10.18
2022-10-23T19:34:35.734Z,8.73
2022-10-23T19:37:33.153Z,9.77
2022-10-23T19:40:18.731Z,11.95
2022-10-23T19:43:15.310Z,8.55
2022-10-23T19:46:31.833Z,12.05
2022-10-23T19:49:01.322Z,13.35
2022-10-23T19:51:51.214Z,10.75
2022-10-23T19:54:43.569Z,14.88
2022-10-23T19:57:19.224Z,17.33
2022-10-23T19:59:51.538Z,9.90
2022-10-23T20:02:21.950Z,19.92
2022-10-23T20:17:10.222Z,11.98
2022-10-23T20:19:48.937Z,9.75
2022-10-23T20:22:24.831Z,6.93
2022-10-23T20:25:12.791Z,7.60
2022-10-23T20:41:34.740Z,14.00
2022-10-23T20:45:30.006Z,9.27
2022-10-23T20:48:50.849Z,10.70
2022-10-23T20:52:10.418Z,10.73
2022-10-23T20:54:42.986Z,5.30
2022-10-23T20:57:12.459Z,6.20
2022-10-23T20:59:43.879Z,10.98
2022-10-23T21:02:13.459Z,6.35
2022-10-23T21:04:43.238Z,18.23
2022-10-23T21:07:13.931Z,6.57
2022-10-23T21:09:43.333Z,7.35
2022-10-23T21:12:15.955Z,12.85
2022-10-23T21:14:45.266Z,9.88
2022-10-23T21:17:19.103Z,15.00
2022-10-23T21:19:51.972Z,8.00
2022-10-23T21:22:23.706Z,11.60
2022-10-23T21:24:58.566Z,8.73
2022-10-23T21:27:27.823Z,9.15
2022-10-23T21:29:57.310Z,7.95
2022-10-23T21:32:27.563Z,8.13
2022-10-23T21:34:57.183Z,6.30
2022-10-23T21:37:28.129Z,9.43
2022-10-23T21:40:00.389Z,7.55
2022-10-23T21:45:03.589Z,12.80
2022-10-23T21:47:35.158Z,8.93
2022-10-23T21:50:10.515Z,12.10
2022-10-23T21:52:44.653Z,15.02
2022-10-23T21:55:14.185Z,4.82
2022-10-23T21:57:43.587Z,6.88
2022-10-23T22:00:16.467Z,10.40
2022-10-23T22:02:46.996Z,7.00
2022-10-23T22:05:23.625Z,9.20
2022-10-23T22:08:00.864Z,11.90
2022-10-23T22:10:32.446Z,7.28
2022-10-23T22:13:02.444Z,14.50
2022-10-23T22:15:33.580Z,8.77
2022-10-23T22:18:03.184Z,8.68
2022-10-23T22:20:32.773Z,15.82
2022-10-23T22:23:03.780Z,9.77
2022-10-23T22:28:17.716Z,8.52
2022-10-23T22:30:46.885Z,11.30
2022-10-23T22:33:20.762Z,8.80
2022-10-23T22:35:50.371Z,8.80
2022-10-23T22:38:25.352Z,6.38
2022-10-23T22:40:54.696Z,7.30
2022-10-23T22:43:30.092Z,11.93
2022-10-23T22:46:04.007Z,7.00
2022-10-23T22:48:33.582Z,10.48
2022-10-23T22:51:07.276Z,10.68
2022-10-23T22:53:39.602Z,10.68
2022-10-23T22:56:10.067Z,17.10
2022-10-23T22:58:39.529Z,12.98
2022-10-23T23:01:12.338Z,14.18
2022-10-23T23:03:41.766Z,9.38
2022-10-23T23:06:11.267Z,15.55
2022-10-23T23:08:44.540Z,14.60
2022-10-23T23:11:14.377Z,10.43
2022-10-23T23:13:44.186Z,16.05
2022-10-23T23:16:19.233Z,18.83
2022-10-23T23:18:48.858Z,10.73
2022-10-23T23:21:18.976Z,11.07
2022-10-23T23:23:49.951Z,11.25
2022-10-23T23:26:22.328Z,13.77
2022-10-23T23:28:54.999Z,10.23
2022-10-23T23:31:25.341Z,15.85
2022-10-23T23:33:54.822Z,9.43
2022-10-23T23:36:25.452Z,10.20
2022-10-23T23:38:59.665Z,17.92
2022-10-23T23:41:30.587Z,14.93
2022-10-23T23:44:00.362Z,12.98
2022-10-23T23:46:29.487Z,14.25
2022-10-23T23:48:58.810Z,10.27
2022-10-23T23:51:28.431Z,17.45
2022-10-23T23:53:58.715Z,14.27
2022-10-23T23:56:28.408Z,8.65
2022-10-23T23:59:02.852Z,9.35
